createdAt,value
2022-11-21T00:01:30.528Z,85.47
2022-11-21T00:04:00.239Z,85.74
2022-11-21T00:06:29.388Z,85.23
2022-11-21T00:08:58.119Z,84.82
2022-11-21T00:11:25.985Z,85.28
2022-11-21T00:13:53.867Z,84.91
2022-11-21T00:16:21.798Z,84.32
2022-11-21T00:18:49.754Z,84.01
2022-11-21T00:21:20.455Z,84.08
2022-11-21T00:23:49.845Z,83.92
2022-11-21T00:26:18.068Z,82.98
2022-11-21T00:28:47.522Z,82.94
2022-11-21T00:31:46.879Z,83.24
2022-11-21T00:34:16.547Z,83.35
2022-11-21T00:36:44.944Z,82.64
2022-11-21T00:39:15.252Z,82.48
2022-11-21T00:41:43.439Z,82.84
2022-11-21T00:44:11.296Z,82.51
2022-11-21T00:46:39.113Z,83.31
2022-11-21T00:49:07.190Z,82.99
2022-11-21T00:51:35.309Z,82.79
2022-11-21T00:54:03.156Z,82.88
2022-11-21T00:56:33.433Z,82.93
2022-11-21T00:59:01.521Z,82.79
2022-11-21T01:01:29.404Z,83.09
2022-11-21T01:03:59.307Z,82.46
2022-11-21T01:06:28.870Z,83.29
2022-11-21T01:08:57.724Z,82.86
2022-11-21T01:11:25.963Z,82.84
2022-11-21T01:13:55.581Z,82.79
2022-11-21T01:16:25.625Z,82.44
2022-11-21T01:18:53.923Z,82.15
2022-11-21T01:21:23.494Z,82.06
2022-11-21T01:23:51.825Z,82.21
2022-11-21T01:26:22.401Z,82.35
2022-11-21T01:28:50.576Z,82.94
2022-11-21T01:31:21.599Z,82.67
2022-11-21T01:33:49.550Z,82.76
2022-11-21T01:36:18.718Z,82.37
2022-11-21T01:38:48.213Z,82.60
2022-11-21T01:41:18.054Z,82.71
2022-11-21T01:43:47.571Z,81.88
2022-11-21T01:46:16.808Z,82.73
2022-11-21T01:48:51.531Z,83.16
2022-11-21T01:51:25.546Z,82.77
2022-11-21T01:53:58.818Z,81.81
2022-11-21T01:56:27.265Z,82.16
2022-11-21T01:58:59.137Z,82.73
2022-11-21T02:01:27.998Z,82.63
2022-11-21T02:03:59.123Z,81.99
2022-11-21T02:06:27.198Z,82.39
2022-11-21T02:08:55.182Z,82.48
2022-11-21T02:11:31.523Z,82.51
2022-11-21T02:14:00.925Z,82.74
2022-11-21T02:16:29.742Z,83.16
2022-11-21T02:18:59.025Z,83.25
2022-11-21T02:21:40.398Z,83.75
2022-11-21T02:24:15.324Z,83.92
2022-11-21T02:26:47.238Z,84.08
2022-11-21T02:29:15.376Z,84.15
2022-11-21T02:31:43.632Z,83.67
2022-11-21T02:34:11.469Z,83.09
2022-11-21T02:36:45.004Z,83.49
2022-11-21T02:39:20.657Z,83.75
2022-11-21T02:41:58.779Z,83.03
2022-11-21T02:44:33.515Z,82.79
2022-11-21T02:47:01.326Z,82.96
2022-11-21T02:49:39.045Z,83.22
2022-11-21T02:52:07.021Z,83.06
2022-11-21T02:54:34.975Z,83.54
2022-11-21T02:57:04.172Z,82.81
2022-11-21T02:59:32.103Z,82.30
2022-11-21T03:02:01.101Z,81.67
2022-11-21T03:04:29.512Z,82.34
2022-11-21T03:06:57.741Z,81.90
2022-11-21T03:09:25.863Z,81.62
2022-11-21T03:11:53.933Z,81.94
2022-11-21T03:14:23.182Z,81.02
2022-11-21T03:16:51.222Z,82.06
2022-11-21T03:19:19.114Z,81.39
2022-11-21T03:21:46.861Z,81.55
2022-11-21T03:24:14.893Z,81.50
2022-11-21T03:26:42.675Z,81.46
2022-11-21T03:29:10.811Z,80.92
2022-11-21T03:31:40.138Z,80.41
2022-11-21T03:34:08.003Z,81.50
2022-11-21T03:36:36.471Z,80.32
2022-11-21T03:39:06.221Z,80.48
2022-11-21T03:41:35.499Z,80.98
2022-11-21T03:44:06.980Z,81.42
2022-11-21T03:46:37.578Z,81.57
2022-11-21T03:49:08.299Z,81.84
2022-11-21T03:51:38.153Z,81.65
2022-11-21T03:54:10.111Z,81.05
2022-11-21T03:56:42.642Z,81.92
2022-11-21T03:59:11.473Z,81.64
2022-11-21T04:01:40.411Z,81.39
2022-11-21T04:04:10.530Z,81.49
2022-11-21T04:06:39.224Z,80.73
2022-11-21T04:09:07.795Z,80.79
2022-11-21T04:11:36.136Z,81.36
2022-11-21T04:14:05.134Z,80.14
2022-11-21T04:16:33.716Z,79.68
2022-11-21T04:19:02.530Z,79.21
2022-11-21T04:21:32.666Z,78.25
2022-11-21T04:24:01.572Z,78.83
2022-11-21T04:26:30.598Z,78.13
2022-11-21T04:29:02.032Z,77.98
2022-11-21T04:31:30.407Z,77.65
2022-11-21T04:34:01.891Z,77.14
2022-11-21T04:36:30.644Z,77.54
2022-11-21T04:39:00.849Z,77.83
2022-11-21T04:41:29.744Z,77.12
2022-11-21T04:43:58.281Z,77.81
2022-11-21T04:46:27.292Z,77.55
2022-11-21T04:48:58.852Z,77.74
2022-11-21T04:51:27.670Z,77.91
2022-11-21T04:53:56.290Z,78.11
2022-11-21T04:56:25.801Z,77.98
2022-11-21T04:58:54.271Z,77.36
2022-11-21T05:01:23.422Z,77.92
2022-11-21T05:03:54.093Z,77.98
2022-11-21T05:06:22.801Z,78.17
2022-11-21T05:08:53.952Z,79.08
2022-11-21T05:11:40.360Z,79.21
2022-11-21T05:14:11.015Z,79.03
2022-11-21T05:16:39.776Z,79.28
2022-11-21T05:19:08.838Z,78.95
2022-11-21T05:21:37.438Z,80.04
2022-11-21T05:24:06.221Z,80.55
2022-11-21T05:26:35.108Z,80.68
2022-11-21T05:29:05.233Z,81.00
2022-11-21T05:31:35.454Z,80.45
2022-11-21T05:34:05.016Z,80.26
2022-11-21T05:36:34.041Z,80.54
2022-11-21T05:39:03.808Z,81.38
2022-11-21T05:41:31.766Z,81.83
2022-11-21T05:43:58.566Z,82.58
2022-11-21T05:46:27.656Z,82.14
2022-11-21T05:48:56.873Z,82.17
2022-11-21T05:51:24.740Z,82.73
2022-11-21T05:53:52.470Z,82.13
2022-11-21T05:56:20.868Z,82.37
2022-11-21T05:58:48.716Z,81.78
2022-11-21T06:01:36.561Z,81.38
2022-11-21T06:04:05.017Z,80.81
2022-11-21T06:06:32.971Z,81.26
2022-11-21T06:09:00.924Z,81.68
2022-11-21T06:11:28.782Z,82.01
2022-11-21T06:13:56.904Z,82.77
2022-11-21T06:16:24.954Z,83.64
2022-11-21T06:18:58.196Z,84.11
2022-11-21T06:21:30.050Z,84.86
2022-11-21T06:23:59.354Z,85.57
2022-11-21T06:26:28.439Z,85.36
2022-11-21T06:28:56.663Z,85.28
2022-11-21T06:31:26.680Z,86.05
2022-11-21T06:33:55.920Z,86.39
2022-11-21T06:36:24.131Z,85.92
2022-11-21T06:38:54.999Z,85.69
2022-11-21T06:41:24.471Z,85.49
2022-11-21T06:43:52.749Z,85.34
2022-11-21T06:46:20.634Z,86.32
2022-11-21T06:48:48.518Z,85.82
2022-11-21T06:51:19.675Z,85.30
2022-11-21T06:53:48.684Z,86.39
2022-11-21T06:56:18.339Z,85.23
2022-11-21T06:58:46.228Z,85.03
2022-11-21T07:01:14.680Z,84.87
2022-11-21T07:03:42.622Z,84.18
2022-11-21T07:06:10.617Z,84.03
2022-11-21T07:08:40.695Z,84.21
2022-11-21T07:11:26.729Z,83.85
2022-11-21T07:13:56.503Z,83.45
2022-11-21T07:16:26.330Z,83.46
2022-11-21T07:18:54.379Z,82.89
2022-11-21T07:21:22.346Z,82.57
2022-11-21T07:23:50.177Z,83.41
2022-11-21T07:26:18.151Z,82.88
2022-11-21T07:28:45.977Z,83.01
2022-11-21T07:31:15.171Z,82.59
2022-11-21T07:33:44.327Z,82.00
2022-11-21T07:36:12.682Z,82.21
2022-11-21T07:38:41.490Z,82.63
2022-11-21T07:41:10.026Z,82.12
2022-11-21T07:43:37.893Z,82.70
2022-11-21T07:46:05.947Z,82.78
2022-11-21T07:48:35.330Z,81.96
2022-11-21T07:51:05.213Z,82.64
2022-11-21T07:53:33.197Z,82.32
2022-11-21T07:56:05.284Z,82.68
2022-11-21T07:58:34.869Z,82.37
2022-11-21T08:01:06.855Z,82.34
2022-11-21T08:03:37.515Z,81.65
2022-11-21T08:06:26.520Z,81.37
2022-11-21T08:13:39.428Z,81.31
2022-11-21T08:16:01.144Z,80.85
2022-11-21T08:18:36.791Z,80.40
2022-11-21T08:21:07.902Z,80.17
2022-11-21T08:23:37.564Z,79.98
2022-11-21T08:26:10.683Z,79.54
2022-11-21T08:28:39.803Z,79.29
2022-11-21T08:31:15.441Z,78.56
2022-11-21T08:33:48.791Z,78.09
2022-11-21T08:36:22.223Z,77.75
2022-11-21T08:38:51.913Z,76.46
2022-11-21T08:41:41.710Z,77.42
2022-11-21T08:44:14.370Z,77.69
2022-11-21T08:46:45.127Z,77.99
2022-11-21T08:49:16.446Z,75.37
2022-11-21T08:51:54.326Z,75.79
2022-11-21T08:54:28.016Z,76.28
2022-11-21T08:57:06.159Z,74.28
2022-11-21T08:59:34.689Z,75.10
2022-11-21T09:02:07.001Z,77.05
2022-11-21T09:04:45.494Z,76.22
2022-11-21T09:07:24.524Z,75.74
2022-11-21T09:09:57.496Z,76.33
2022-11-21T09:12:29.616Z,75.68
2022-11-21T09:15:15.724Z,76.48
2022-11-21T09:18:02.683Z,77.49
2022-11-21T09:20:39.924Z,75.85
2022-11-21T09:23:15.147Z,76.98
2022-11-21T09:25:45.060Z,77.42
2022-11-21T09:28:26.055Z,77.80
2022-11-21T09:30:59.247Z,79.65
2022-11-21T09:33:32.133Z,79.80
2022-11-21T09:36:02.405Z,79.74
2022-11-21T09:38:47.507Z,80.64
2022-11-21T09:41:44.256Z,79.09
2022-11-21T09:44:32.756Z,79.88
2022-11-21T09:47:08.616Z,78.70
2022-11-21T09:49:47.296Z,79.89
2022-11-21T09:52:25.748Z,79.81
2022-11-21T09:55:00.885Z,77.97
2022-11-21T09:57:33.664Z,77.85
2022-11-21T10:00:10.660Z,76.53
2022-11-21T10:05:43.184Z,75.79
2022-11-21T10:11:24.671Z,75.81
2022-11-21T10:14:10.244Z,75.15
2022-11-21T10:19:58.324Z,71.93
2022-11-21T10:23:19.534Z,71.49
2022-11-21T10:26:50.481Z,72.36
2022-11-21T10:29:52.335Z,71.30
2022-11-21T10:36:29.793Z,71.94
2022-11-21T10:39:14.411Z,70.39
2022-11-21T10:42:03.461Z,71.23
2022-11-21T10:47:38.920Z,70.65
2022-11-21T10:50:26.500Z,69.04
2022-11-21T10:53:25.955Z,67.73
2022-11-21T10:56:02.576Z,67.70
2022-11-21T10:58:49.714Z,67.65
2022-11-21T11:01:31.495Z,67.32
2022-11-21T11:04:28.213Z,68.87
2022-11-21T11:07:24.687Z,67.90
2022-11-21T11:10:28.499Z,67.30
2022-11-21T11:13:45.067Z,66.31
2022-11-21T11:16:23.964Z,65.43
2022-11-21T11:18:59.583Z,64.65
2022-11-21T11:21:31.859Z,63.49
2022-11-21T11:24:34.455Z,64.58
2022-11-21T11:27:05.873Z,62.97
2022-11-21T11:32:58.891Z,65.58
2022-11-21T11:35:35.761Z,64.97
2022-11-21T11:38:25.213Z,65.98
2022-11-21T11:41:08.289Z,65.74
2022-11-21T11:44:03.733Z,65.83
2022-11-21T11:47:08.236Z,65.30
2022-11-21T11:50:15.841Z,66.00
2022-11-21T11:53:03.682Z,65.97
2022-11-21T11:55:55.591Z,66.12
2022-11-21T11:58:42.221Z,64.70
2022-11-21T12:07:41.333Z,67.19
2022-11-21T12:19:10.703Z,65.36
2022-11-21T12:26:24.366Z,63.68
2022-11-21T12:32:12.772Z,62.70
2022-11-21T12:35:14.891Z,62.60
2022-11-21T12:37:57.807Z,63.47
2022-11-21T12:49:27.946Z,63.08
2022-11-21T13:51:57.940Z,60.69
2022-11-21T13:55:11.697Z,60.27
2022-11-21T13:58:09.251Z,60.09
2022-11-21T14:00:59.311Z,60.75
2022-11-21T14:04:02.064Z,59.88
2022-11-21T14:06:39.056Z,60.79
2022-11-21T14:09:33.857Z,60.58
2022-11-21T14:12:09.040Z,60.24
2022-11-21T14:14:49.671Z,60.04
2022-11-21T14:17:41.689Z,60.25
2022-11-21T14:20:37.317Z,60.84
2022-11-21T14:23:18.495Z,60.17
2022-11-21T14:25:53.901Z,60.94
2022-11-21T14:28:30.000Z,61.63
2022-11-21T14:31:05.025Z,60.85
2022-11-21T14:33:39.869Z,61.73
2022-11-21T14:36:17.964Z,61.94
2022-11-21T14:39:13.869Z,61.74
2022-11-21T14:41:49.874Z,63.39
2022-11-21T14:49:22.446Z,64.19
2022-11-21T14:55:44.813Z,64.08
2022-11-21T14:58:43.394Z,64.22
2022-11-21T15:02:00.922Z,64.04
2022-11-21T15:04:34.844Z,64.55
2022-11-21T15:07:17.624Z,64.88
2022-11-21T16:06:12.067Z,74.31
2022-11-21T16:47:53.978Z,78.21
2022-11-21T16:50:32.850Z,78.48
2022-11-21T16:53:04.936Z,77.75
2022-11-21T16:55:41.378Z,78.33
2022-11-21T17:02:35.048Z,78.69
2022-11-21T17:06:09.533Z,79.58
2022-11-21T17:09:13.593Z,79.25
2022-11-21T17:11:48.293Z,79.70
2022-11-21T17:14:18.964Z,79.92
2022-11-21T17:16:55.812Z,79.08
2022-11-21T17:19:35.687Z,79.66
2022-11-21T18:11:25.394Z,79.48
2022-11-21T18:14:00.516Z,78.71
2022-11-21T18:16:32.871Z,78.77
2022-11-21T18:19:12.912Z,78.60
2022-11-21T18:21:46.323Z,78.51
2022-11-21T18:27:29.730Z,78.47
2022-11-21T18:32:49.769Z,78.58
2022-11-21T18:35:43.366Z,78.82
2022-11-21T18:39:30.488Z,78.83
2022-11-21T18:45:48.384Z,79.18
2022-11-21T18:48:24.204Z,78.14
2022-11-21T18:50:56.483Z,78.28
2022-11-21T18:53:37.919Z,77.96
2022-11-21T18:56:14.315Z,77.75
2022-11-21T18:58:55.701Z,77.63
2022-11-21T19:01:33.091Z,77.34
2022-11-21T19:04:05.050Z,77.18
2022-11-21T19:07:11.990Z,77.02
2022-11-21T19:09:40.428Z,77.00
2022-11-21T19:12:08.781Z,76.97
2022-11-21T19:14:36.848Z,77.21
2022-11-21T19:17:06.669Z,77.05
2022-11-21T19:19:36.058Z,76.30
2022-11-21T19:22:06.370Z,76.50
2022-11-21T19:24:37.547Z,76.45
2022-11-21T19:27:06.970Z,76.81
2022-11-21T19:29:35.452Z,76.64
2022-11-21T19:32:03.790Z,75.63
2022-11-21T19:34:33.251Z,76.24
2022-11-21T19:37:01.584Z,75.84
2022-11-21T19:39:31.463Z,76.05
2022-11-21T19:42:00.379Z,75.72
2022-11-21T19:44:28.590Z,75.16
2022-11-21T19:46:56.587Z,76.03
2022-11-21T19:49:24.706Z,75.97
2022-11-21T19:51:54.287Z,76.04
2022-11-21T19:54:22.454Z,76.45
2022-11-21T19:56:53.497Z,76.06
2022-11-21T19:59:21.900Z,75.92
2022-11-21T20:01:52.815Z,75.90
2022-11-21T20:04:21.616Z,76.12
2022-11-21T20:06:49.951Z,75.99
2022-11-21T20:09:21.860Z,75.73
2022-11-21T20:11:51.998Z,76.56
2022-11-21T20:14:26.885Z,75.88
2022-11-21T20:16:59.286Z,75.89
2022-11-21T20:19:28.165Z,75.58
2022-11-21T20:21:56.429Z,75.82
2022-11-21T20:24:27.008Z,75.61
2022-11-21T20:26:59.762Z,75.74
2022-11-21T20:29:28.426Z,75.51
2022-11-21T20:31:59.389Z,75.12
2022-11-21T20:34:28.518Z,75.04
2022-11-21T20:36:57.240Z,75.04
2022-11-21T20:39:36.464Z,75.73
2022-11-21T20:42:08.823Z,74.77
2022-11-21T20:45:36.419Z,75.16
2022-11-21T20:47:26.458Z,75.16
2022-11-21T20:49:54.688Z,74.80
2022-11-21T20:55:13.218Z,74.55
2022-11-21T20:57:41.947Z,74.06
2022-11-21T21:00:11.693Z,74.23
2022-11-21T21:02:43.036Z,73.62
2022-11-21T21:05:11.447Z,74.17
2022-11-21T21:07:39.524Z,73.75
2022-11-21T21:10:09.465Z,73.83
2022-11-21T21:12:40.508Z,73.97
2022-11-21T21:15:11.557Z,74.23
2022-11-21T21:17:42.190Z,74.34
2022-11-21T21:20:13.354Z,74.43
2022-11-21T21:22:45.414Z,74.40
2022-11-21T21:25:43.379Z,75.17
2022-11-21T21:28:17.125Z,75.34
2022-11-21T21:30:46.923Z,76.25
2022-11-21T21:33:17.010Z,76.35
2022-11-21T21:35:52.444Z,76.95
2022-11-21T21:38:22.378Z,78.06
2022-11-21T21:41:02.516Z,78.89
2022-11-21T21:43:37.780Z,78.92
2022-11-21T21:46:14.049Z,79.18
2022-11-21T21:51:40.480Z,79.51
2022-11-21T21:54:19.102Z,80.22
2022-11-21T21:56:52.368Z,80.33
2022-11-21T21:59:24.073Z,80.88
2022-11-21T22:01:52.927Z,81.60
2022-11-21T22:04:21.277Z,82.10
2022-11-21T22:06:49.863Z,82.52
2022-11-21T22:56:35.675Z,82.38
2022-11-21T23:03:05.689Z,82.88
2022-11-21T23:05:35.202Z,83.23
2022-11-21T23:08:03.988Z,83.13
2022-11-21T23:10:33.123Z,83.14
2022-11-21T23:13:09.080Z,83.67
2022-11-21T23:15:43.970Z,82.84
2022-11-21T23:18:13.519Z,82.81
2022-11-21T23:20:46.812Z,83.38
2022-11-21T23:23:16.026Z,83.85
2022-11-21T23:25:45.902Z,84.19
2022-11-21T23:28:16.792Z,84.19
2022-11-21T23:30:47.785Z,84.03
2022-11-21T23:33:17.375Z,83.86
2022-11-21T23:35:47.683Z,83.96
2022-11-21T23:38:18.656Z,84.00
2022-11-21T23:40:50.994Z,83.57
2022-11-21T23:43:24.538Z,84.34
2022-11-21T23:45:54.966Z,83.73
2022-11-21T23:48:24.972Z,83.42
2022-11-21T23:50:54.770Z,84.17
2022-11-21T23:53:28.391Z,83.60
2022-11-21T23:56:01.830Z,84.36
2022-11-21T23:58:40.324Z,83.96
